Time;durP1;ratioP1;P1;durP2;ratioP2;P2;SDS_P1;SDS_P2;PMS_P1;PMS_P2;Temp;Humidity;BMP_temperature;BMP_pressure;BME280_temperature;BME280_humidity;BME280_pressure;Samples;Min_cycle;Max_cycle;Signal;HPM_P1;HPM_P2
2022/11/05 00:09:58;;;;;;;;;;;;;;;;;;5042214;28;1185;-79
2022/11/05 00:17:53;;;;;;;;;;;;;;;;;;5055720;28;1040;-78
2022/11/05 00:20:20;;;;;;;;;;;;;;;;;;5056121;28;1014;-78
2022/11/05 00:25:30;;;;;;;;;;;;;;;;;;5043179;28;1254;-78
2022/11/05 00:28:00;;;;;;;;;;;;;;;;;;5063709;28;1059;-80
2022/11/05 00:30:27;;;;;;;;;;;;;;;;;;5031115;28;1487;-79
2022/11/05 00:32:53;;;;;;;;;;;;;;;;;;5026091;28;1321;-80
2022/11/05 00:35:22;;;;;;;;;;;;;;;;;;5028750;28;1280;-79
2022/11/05 00:37:48;;;;;;;;;;;;;;;;;;5028620;28;1094;-80
2022/11/05 00:40:14;;;;;;;;;;;;;;;;;;5028501;28;1132;-79
2022/11/05 00:45:26;;;;;;;;;;;;;;;;;;5028063;28;1895;-79
2022/11/05 00:50:37;;;;;;;;;;;;;;;;;;5028109;28;1230;-79
2022/11/05 00:53:04;;;;;;;;;;;;;;;;;;5045383;28;1315;-79
2022/11/05 00:55:33;;;;;;;;;;;;;;;;;;5044758;28;1048;-79
2022/11/05 00:57:59;;;;;;;;;;;;;;;;;;5042799;28;994;-79
2022/11/05 01:00:27;;;;;;;;;;;;;;;;;;5042649;28;1147;-79
2022/11/05 01:02:53;;;;;;;;;;;;;;;;;;5040705;28;1391;-79
2022/11/05 01:05:19;;;;;;;;;;;;;;;;;;5041064;28;1911;-80
2022/11/05 01:07:46;;;;;;;;;;;;;;;;;;5040870;28;990;-79
2022/11/05 01:10:13;;;;;;;;;;;;;;;;;;5042050;28;1008;-79
2022/11/05 01:12:39;;;;;;;;;;;;;;;;;;5042408;28;1374;-79
2022/11/05 01:15:06;;;;;;;;;;;;;;;;;;5041676;28;1126;-79
2022/11/05 01:17:32;;;;;;;;;;;;;;;;;;5043650;28;752;-78
2022/11/05 01:19:58;;;;;;;;;;;;;;;;;;5047048;28;1032;-79
2022/11/05 01:22:24;;;;;;;;;;;;;;;;;;5046939;28;1297;-79
2022/11/05 01:24:52;;;;;;;;;;;;;;;;;;5027778;28;1972;-79
2022/11/05 01:27:18;;;;;;;;;;;;;;;;;;5026226;28;1269;-79
2022/11/05 01:29:44;;;;;;;;;;;;;;;;;;5042358;28;1112;-78
2022/11/05 01:32:11;;;;;;;;;;;;;;;;;;4958997;28;1338;-78
2022/11/05 01:34:38;;;;;;;;;;;;;;;;;;4968923;28;1564;-78
2022/11/05 01:37:04;;;;;;;;;;;;;;;;;;4970740;28;1619;-78
2022/11/05 01:39:31;;;;;;;;;;;;;;;;;;4943720;28;1180;-80
2022/11/05 01:41:59;;;;;;;;;;;;;;;;;;4949431;28;1298;-79
2022/11/05 01:44:46;;;;;;;;;;;;;;;;;;4970035;28;1934;-78
2022/11/05 01:47:13;;;;;;;;;;;;;;;;;;4972108;28;755;-79
2022/11/05 01:49:40;;;;;;;;;;;;;;;;;;4972295;28;921;-78
2022/11/05 01:52:06;;;;;;;;;;;;;;;;;;4966793;28;1636;-80
2022/11/05 01:54:33;;;;;;;;;;;;;;;;;;4976876;28;964;-79
2022/11/05 01:57:01;;;;;;;;;;;;;;;;;;4966247;28;1116;-79
2022/11/05 01:59:29;;;;;;;;;;;;;;;;;;4985066;28;697;-79
2022/11/05 02:01:56;;;;;;;;;;;;;;;;;;4965781;28;1201;-78
2022/11/05 02:04:25;;;;;;;;;;;;;;;;;;4963962;28;1942;-79
2022/11/05 02:06:52;;;;;;;;;;;;;;;;;;4987138;28;732;-79
2022/11/05 02:09:20;;;;;;;;;;;;;;;;;;4987739;28;993;-80
2022/11/05 02:11:47;;;;;;;;;;;;;;;;;;4983078;28;845;-80
2022/11/05 02:14:15;;;;;;;;;;;;;;;;;;4965044;28;1275;-79
2022/11/05 02:16:43;;;;;;;;;;;;;;;;;;4983824;28;953;-81
2022/11/05 02:19:18;;;;;;;;;;;;;;;;;;4963083;28;1112;-81
2022/11/05 02:22:06;;;;;;;;;;;;;;;;;;4964313;28;1408;-79
2022/11/05 02:24:37;;;;;;;;;;;;;;;;;;4990690;28;1993;-79
2022/11/05 02:27:07;;;;;;;;;;;;;;;;;;4989268;28;783;-79
2022/11/05 02:29:51;;;;;;;;;;;;;;;;;;4961028;28;1053;-79
2022/11/05 02:32:21;;;;;;;;;;;;;;;;;;4961119;28;1456;-79
2022/11/05 02:34:49;;;;;;;;;;;;;;;;;;4984021;28;917;-79
2022/11/05 02:37:17;;;;;;;;;;;;;;;;;;4965577;28;1134;-78
2022/11/05 02:39:47;;;;;;;;;;;;;;;;;;4988525;28;798;-79
2022/11/05 02:42:15;;;;;;;;;;;;;;;;;;4961105;28;1312;-79
2022/11/05 02:44:45;;;;;;;;;;;;;;;;;;4968650;28;1993;-79
2022/11/05 02:47:16;;;;;;;;;;;;;;;;;;4979871;28;1043;-82
2022/11/05 02:49:48;;;;;;;;;;;;;;;;;;4967733;28;1000;-79
2022/11/05 02:52:15;;;;;;;;;;;;;;;;;;4986434;28;1367;-80
2022/11/05 02:54:43;;;;;;;;;;;;;;;;;;4990249;28;889;-79
2022/11/05 02:57:09;;;;;;;;;;;;;;;;;;5020483;28;981;-79
2022/11/05 02:59:35;;;;;;;;;;;;;;;;;;5061064;28;1072;-79
2022/11/05 03:02:01;;;;;;;;;;;;;;;;;;5043986;28;1401;-79
2022/11/05 03:04:27;;;;;;;;;;;;;;;;;;5061232;28;1971;-79
2022/11/05 03:06:59;;;;;;;;;;;;;;;;;;5043242;28;1346;-79
2022/11/05 03:09:28;;;;;;;;;;;;;;;;;;5044062;28;1449;-79
2022/11/05 03:11:57;;;;;;;;;;;;;;;;;;5057390;28;933;-79
2022/11/05 03:14:24;;;;;;;;;;;;;;;;;;5040772;28;1225;-79
2022/11/05 03:16:52;;;;;;;;;;;;;;;;;;5061039;28;937;-79
2022/11/05 03:19:20;;;;;;;;;;;;;;;;;;5044375;28;1125;-78
2022/11/05 03:21:46;;;;;;;;;;;;;;;;;;5061226;28;960;-80
2022/11/05 03:24:15;;;;;;;;;;;;;;;;;;5045072;28;1906;-79
2022/11/05 03:26:42;;;;;;;;;;;;;;;;;;5062788;28;1175;-79
2022/11/05 03:29:09;;;;;;;;;;;;;;;;;;5064483;28;770;-79
2022/11/05 03:31:36;;;;;;;;;;;;;;;;;;5061105;28;976;-82
2022/11/05 03:34:02;;;;;;;;;;;;;;;;;;5063095;28;1304;-79
2022/11/05 03:36:30;;;;;;;;;;;;;;;;;;5063573;28;979;-80
2022/11/05 03:38:57;;;;;;;;;;;;;;;;;;5060727;28;984;-80
2022/11/05 03:41:24;;;;;;;;;;;;;;;;;;5056907;28;1060;-77
2022/11/05 03:43:52;;;;;;;;;;;;;;;;;;5060828;28;1420;-78
2022/11/05 03:46:18;;;;;;;;;;;;;;;;;;5061987;28;1956;-79
2022/11/05 03:48:45;;;;;;;;;;;;;;;;;;5065379;28;993;-79
2022/11/05 03:51:12;;;;;;;;;;;;;;;;;;5047320;28;1252;-79
2022/11/05 03:53:40;;;;;;;;;;;;;;;;;;5046458;28;1424;-80
2022/11/05 03:56:08;;;;;;;;;;;;;;;;;;5066268;28;1147;-80
2022/11/05 03:58:35;;;;;;;;;;;;;;;;;;5066723;28;1048;-80
2022/11/05 04:01:02;;;;;;;;;;;;;;;;;;5065757;28;1084;-79
2022/11/05 04:03:34;;;;;;;;;;;;;;;;;;5065381;28;1285;-80
2022/11/05 04:14:14;;;;;;;;;;;;;;;;;;5096394;28;993;-81
2022/11/05 04:24:48;;;;;;;;;;;;;;;;;;5037987;28;1985;-81
2022/11/05 04:27:14;;;;;;;;;;;;;;;;;;5038079;28;1285;-82
2022/11/05 04:32:26;;;;;;;;;;;;;;;;;;5054943;28;1016;-82
2022/11/05 04:34:52;;;;;;;;;;;;;;;;;;5038972;28;1330;-82
2022/11/05 04:37:18;;;;;;;;;;;;;;;;;;5039587;28;1290;-83
2022/11/05 04:39:44;;;;;;;;;;;;;;;;;;5056944;28;648;-82
2022/11/05 04:42:11;;;;;;;;;;;;;;;;;;5039496;28;1219;-82
2022/11/05 04:44:37;;;;;;;;;;;;;;;;;;5039281;28;1914;-81
2022/11/05 04:47:05;;;;;;;;;;;;;;;;;;5039583;28;1204;-81
2022/11/05 04:49:31;;;;;;;;;;;;;;;;;;5062202;28;1089;-80
2022/11/05 04:51:57;;;;;;;;;;;;;;;;;;5054075;28;969;-81
2022/11/05 04:54:23;;;;;;;;;;;;;;;;;;5056852;28;1055;-80
2022/11/05 04:56:49;;;;;;;;;;;;;;;;;;5056142;28;1328;-81
2022/11/05 04:59:15;;;;;;;;;;;;;;;;;;5055947;28;1516;-81
2022/11/05 05:01:42;;;;;;;;;;;;;;;;;;5036395;28;1596;-81
2022/11/05 05:04:09;;;;;;;;;;;;;;;;;;5055554;28;1047;-81
2022/11/05 05:06:37;;;;;;;;;;;;;;;;;;5055119;28;1898;-81
2022/11/05 05:09:03;;;;;;;;;;;;;;;;;;5055444;28;861;-82
2022/11/05 05:11:29;;;;;;;;;;;;;;;;;;5054827;28;1064;-82
2022/11/05 05:13:55;;;;;;;;;;;;;;;;;;5055837;28;1076;-81
2022/11/05 05:16:22;;;;;;;;;;;;;;;;;;5056131;28;1300;-81
2022/11/05 05:18:49;;;;;;;;;;;;;;;;;;5055797;28;1064;-81
2022/11/05 05:24:01;;;;;;;;;;;;;;;;;;5056154;28;1004;-83
2022/11/05 05:26:27;;;;;;;;;;;;;;;;;;5055365;28;1987;-81
2022/11/05 05:28:53;;;;;;;;;;;;;;;;;;5055505;28;1229;-81
2022/11/05 05:31:19;;;;;;;;;;;;;;;;;;5055238;28;1056;-81
2022/11/05 05:33:46;;;;;;;;;;;;;;;;;;5072821;28;1466;-80
2022/11/05 05:36:12;;;;;;;;;;;;;;;;;;5093278;28;1428;-79
2022/11/05 05:38:40;;;;;;;;;;;;;;;;;;5016919;28;1259;-81
2022/11/05 05:41:07;;;;;;;;;;;;;;;;;;4992611;28;787;-81
2022/11/05 05:43:33;;;;;;;;;;;;;;;;;;5015045;28;1541;-81
2022/11/05 05:46:01;;;;;;;;;;;;;;;;;;5025676;28;1906;-81
2022/11/05 05:48:27;;;;;;;;;;;;;;;;;;4979949;28;893;-81
2022/11/05 05:50:54;;;;;;;;;;;;;;;;;;4987561;28;1493;-81
2022/11/05 05:53:20;;;;;;;;;;;;;;;;;;5034558;28;1035;-76
2022/11/05 05:55:48;;;;;;;;;;;;;;;;;;5044663;28;1387;-77
2022/11/05 05:58:15;;;;;;;;;;;;;;;;;;5046641;28;1632;-76
2022/11/05 06:00:41;;;;;;;;;;;;;;;;;;5017981;28;931;-77
2022/11/05 06:03:08;;;;;;;;;;;;;;;;;;5021545;28;969;-76
2022/11/05 06:05:34;;;;;;;;;;;;;;;;;;5012670;28;1934;-77
2022/11/05 06:08:01;;;;;;;;;;;;;;;;;;4998809;28;897;-77
2022/11/05 06:10:27;;;;;;;;;;;;;;;;;;4980146;28;1733;-77
2022/11/05 06:12:55;;;;;;;;;;;;;;;;;;5011909;28;1650;-76
2022/11/05 06:15:22;;;;;;;;;;;;;;;;;;5000196;28;1274;-76
2022/11/05 06:17:48;;;;;;;;;;;;;;;;;;4991682;28;1148;-77
2022/11/05 06:20:15;;;;;;;;;;;;;;;;;;5008084;28;1460;-77
2022/11/05 06:22:41;;;;;;;;;;;;;;;;;;5053015;28;1367;-75
2022/11/05 06:25:08;;;;;;;;;;;;;;;;;;5093407;28;1993;-75
2022/11/05 06:27:35;;;;;;;;;;;;;;;;;;5096290;28;1404;-78
2022/11/05 06:30:03;;;;;;;;;;;;;;;;;;5075306;28;1367;-78
2022/11/05 06:32:30;;;;;;;;;;;;;;;;;;5077601;28;1486;-78
2022/11/05 06:34:56;;;;;;;;;;;;;;;;;;5078573;28;1410;-79
2022/11/05 06:37:22;;;;;;;;;;;;;;;;;;5070021;28;1299;-77
2022/11/05 06:39:49;;;;;;;;;;;;;;;;;;5015512;28;1188;-76
2022/11/05 06:42:15;;;;;;;;;;;;;;;;;;5021712;28;980;-78
2022/11/05 06:44:42;;;;;;;;;;;;;;;;;;5005207;28;1269;-76
2022/11/05 06:47:10;;;;;;;;;;;;;;;;;;4985519;28;1938;-77
2022/11/05 06:49:36;;;;;;;;;;;;;;;;;;5004680;28;963;-76
2022/11/05 06:52:03;;;;;;;;;;;;;;;;;;5007709;28;1046;-79
2022/11/05 06:54:29;;;;;;;;;;;;;;;;;;5009783;28;1293;-79
2022/11/05 06:56:56;;;;;;;;;;;;;;;;;;5032598;28;1063;-77
2022/11/05 06:59:23;;;;;;;;;;;;;;;;;;5030880;28;909;-78
2022/11/05 07:01:49;;;;;;;;;;;;;;;;;;4986247;28;1640;-77
2022/11/05 07:04:17;;;;;;;;;;;;;;;;;;5041654;28;1510;-80
2022/11/05 07:06:43;;;;;;;;;;;;;;;;;;5088491;28;1886;-80
2022/11/05 07:09:09;;;;;;;;;;;;;;;;;;5099206;28;1056;-81
2022/11/05 07:11:36;;;;;;;;;;;;;;;;;;5092677;28;1640;-80
2022/11/05 07:14:02;;;;;;;;;;;;;;;;;;5087416;28;1118;-83
2022/11/05 07:16:28;;;;;;;;;;;;;;;;;;5080286;28;1301;-81
2022/11/05 07:18:54;;;;;;;;;;;;;;;;;;5099706;28;862;-82
2022/11/05 07:21:22;;;;;;;;;;;;;;;;;;5099332;28;1112;-83
2022/11/05 07:23:48;;;;;;;;;;;;;;;;;;5078827;28;1435;-82
2022/11/05 07:26:14;;;;;;;;;;;;;;;;;;5090492;28;1977;-83
2022/11/05 07:28:40;;;;;;;;;;;;;;;;;;5082577;28;1158;-83
2022/11/05 07:31:06;;;;;;;;;;;;;;;;;;5081419;28;1088;-84
2022/11/05 07:33:33;;;;;;;;;;;;;;;;;;5077566;28;1518;-80
2022/11/05 07:35:59;;;;;;;;;;;;;;;;;;5082910;28;1450;-79
2022/11/05 07:38:26;;;;;;;;;;;;;;;;;;5094302;28;1238;-79
2022/11/05 07:40:53;;;;;;;;;;;;;;;;;;5086722;28;1151;-82
2022/11/05 07:43:19;;;;;;;;;;;;;;;;;;5078203;28;818;-82
2022/11/05 07:45:46;;;;;;;;;;;;;;;;;;5077526;28;1915;-82
2022/11/05 07:48:12;;;;;;;;;;;;;;;;;;5058793;28;1199;-81
2022/11/05 07:50:38;;;;;;;;;;;;;;;;;;5059189;28;1215;-82
2022/11/05 07:53:05;;;;;;;;;;;;;;;;;;5058527;28;1344;-82
2022/11/05 07:55:33;;;;;;;;;;;;;;;;;;5076219;28;1306;-82
2022/11/05 07:57:59;;;;;;;;;;;;;;;;;;5058523;28;1176;-83
2022/11/05 08:00:26;;;;;;;;;;;;;;;;;;5081148;28;1127;-83
2022/11/05 08:02:56;;;;;;;;;;;;;;;;;;5068116;28;1127;-83
2022/11/05 08:05:22;;;;;;;;;;;;;;;;;;5079185;28;1883;-83
2022/11/05 08:07:48;;;;;;;;;;;;;;;;;;5079039;28;1115;-83
2022/11/05 08:10:14;;;;;;;;;;;;;;;;;;5078777;28;1127;-82
2022/11/05 08:12:42;;;;;;;;;;;;;;;;;;5060438;28;1184;-84
2022/11/05 08:15:09;;;;;;;;;;;;;;;;;;5060269;28;1392;-83
2022/11/05 08:17:35;;;;;;;;;;;;;;;;;;5079528;28;1067;-83
2022/11/05 08:20:01;;;;;;;;;;;;;;;;;;5080414;28;1075;-83
2022/11/05 08:22:27;;;;;;;;;;;;;;;;;;5079499;28;1048;-82
2022/11/05 08:24:54;;;;;;;;;;;;;;;;;;5077932;28;1285;-82
2022/11/05 08:27:20;;;;;;;;;;;;;;;;;;5081887;28;1975;-83
2022/11/05 08:29:47;;;;;;;;;;;;;;;;;;5078571;28;944;-78
2022/11/05 08:32:13;;;;;;;;;;;;;;;;;;5074322;28;1522;-83
2022/11/05 08:34:40;;;;;;;;;;;;;;;;;;5060823;28;1268;-82
2022/11/05 08:37:06;;;;;;;;;;;;;;;;;;5060643;28;1281;-83
2022/11/05 08:39:32;;;;;;;;;;;;;;;;;;5061157;28;1331;-82
2022/11/05 08:41:58;;;;;;;;;;;;;;;;;;5060366;28;1371;-83
2022/11/05 08:44:24;;;;;;;;;;;;;;;;;;5078998;28;766;-83
2022/11/05 08:46:53;;;;;;;;;;;;;;;;;;5078054;28;1981;-83
2022/11/05 08:49:19;;;;;;;;;;;;;;;;;;5078196;28;1080;-82
2022/11/05 08:51:45;;;;;;;;;;;;;;;;;;5060102;28;1160;-82
2022/11/05 08:54:12;;;;;;;;;;;;;;;;;;5077312;28;1071;-83
2022/11/05 08:56:38;;;;;;;;;;;;;;;;;;5057887;28;1369;-82
2022/11/05 08:59:04;;;;;;;;;;;;;;;;;;5075882;28;1369;-82
2022/11/05 09:01:30;;;;;;;;;;;;;;;;;;5057634;28;1524;-82
2022/11/05 09:03:58;;;;;;;;;;;;;;;;;;5076994;28;1269;-79
2022/11/05 09:06:24;;;;;;;;;;;;;;;;;;5090681;28;1890;-81
2022/11/05 09:08:50;;;;;;;;;;;;;;;;;;5086293;28;1251;-80
2022/11/05 09:11:17;;;;;;;;;;;;;;;;;;5071504;28;1402;-79
2022/11/05 09:13:43;;;;;;;;;;;;;;;;;;5068627;28;1084;-80
2022/11/05 09:16:13;;;;;;;;;;;;;;;;;;5081764;28;1336;-82
2022/11/05 09:18:41;;;;;;;;;;;;;;;;;;5076856;28;814;-81
2022/11/05 09:21:08;;;;;;;;;;;;;;;;;;5076435;28;1123;-82
2022/11/05 09:23:34;;;;;;;;;;;;;;;;;;5075886;28;889;-83
2022/11/05 09:26:01;;;;;;;;;;;;;;;;;;5076416;28;1910;-82
2022/11/05 09:28:27;;;;;;;;;;;;;;;;;;5076208;28;972;-82
2022/11/05 09:30:53;;;;;;;;;;;;;;;;;;5076002;28;1076;-82
2022/11/05 09:33:20;;;;;;;;;;;;;;;;;;5076290;28;929;-81
2022/11/05 09:35:46;;;;;;;;;;;;;;;;;;5076387;28;1369;-83
2022/11/05 09:38:14;;;;;;;;;;;;;;;;;;5069431;28;1677;-81
2022/11/05 09:40:41;;;;;;;;;;;;;;;;;;5062537;28;1243;-81
2022/11/05 09:43:07;;;;;;;;;;;;;;;;;;5079668;28;1533;-80
2022/11/05 09:45:33;;;;;;;;;;;;;;;;;;5081472;28;1415;-81
2022/11/05 09:48:00;;;;;;;;;;;;;;;;;;5062589;28;1946;-80
2022/11/05 09:50:31;;;;;;;;;;;;;;;;;;5063079;28;1254;-81
2022/11/05 09:52:57;;;;;;;;;;;;;;;;;;5081401;28;1278;-81
2022/11/05 09:55:27;;;;;;;;;;;;;;;;;;5064844;28;1396;-80
2022/11/05 09:57:55;;;;;;;;;;;;;;;;;;5082452;28;1279;-80
2022/11/05 10:00:21;;;;;;;;;;;;;;;;;;5061719;28;1242;-81
2022/11/05 10:02:48;;;;;;;;;;;;;;;;;;5079502;28;1270;-79
2022/11/05 10:05:15;;;;;;;;;;;;;;;;;;5061694;28;1390;-80
2022/11/05 10:07:42;;;;;;;;;;;;;;;;;;5079321;28;1950;-80
2022/11/05 10:10:09;;;;;;;;;;;;;;;;;;5080549;28;1241;-82
2022/11/05 10:12:37;;;;;;;;;;;;;;;;;;5079426;28;1448;-81
2022/11/05 10:15:05;;;;;;;;;;;;;;;;;;5080373;28;1288;-82
2022/11/05 10:17:31;;;;;;;;;;;;;;;;;;5079793;28;850;-81
2022/11/05 10:19:59;;;;;;;;;;;;;;;;;;5079847;28;1153;-81
2022/11/05 10:22:25;;;;;;;;;;;;;;;;;;5082832;28;790;-80
2022/11/05 10:24:52;;;;;;;;;;;;;;;;;;5097431;22;2140;-79
2022/11/05 10:27:19;;;;;;;;;;;;;;;;;;5071499;28;1898;-80
2022/11/05 10:29:47;;;;;;;;;;;;;;;;;;5063635;28;1216;-81
2022/11/05 10:32:15;;;;;;;;;;;;;;;;;;5060512;28;1193;-81
2022/11/05 10:34:41;;;;;;;;;;;;;;;;;;5059897;28;1289;-79
2022/11/05 10:37:08;;;;;;;;;;;;;;;;;;5042078;28;839;-81
2022/11/05 10:39:34;;;;;;;;;;;;;;;;;;5044134;28;1233;-81
2022/11/05 10:42:04;;;;;;;;;;;;;;;;;;5062875;28;1455;-81
2022/11/05 10:44:32;;;;;;;;;;;;;;;;;;5045118;28;1278;-79
2022/11/05 10:47:05;;;;;;;;;;;;;;;;;;5036930;28;1961;-78
2022/11/05 10:49:36;;;;;;;;;;;;;;;;;;5057061;28;1136;-78
2022/11/05 10:52:03;;;;;;;;;;;;;;;;;;5053794;28;2470;-80
2022/11/05 10:54:30;;;;;;;;;;;;;;;;;;5056307;28;1451;-78
2022/11/05 10:56:56;;;;;;;;;;;;;;;;;;5055724;28;1293;-78
2022/11/05 10:59:24;;;;;;;;;;;;;;;;;;5037433;28;1187;-78
2022/11/05 11:01:57;;;;;;;;;;;;;;;;;;5055351;28;1322;-79
2022/11/05 11:04:25;;;;;;;;;;;;;;;;;;5063001;28;1378;-79
2022/11/05 11:06:52;;;;;;;;;;;;;;;;;;5066248;28;1914;-79
2022/11/05 11:09:20;;;;;;;;;;;;;;;;;;5063065;28;1311;-79
2022/11/05 11:11:46;;;;;;;;;;;;;;;;;;5055859;28;834;-78
2022/11/05 11:14:18;;;;;;;;;;;;;;;;;;5055353;28;1368;-77
2022/11/05 11:16:45;;;;;;;;;;;;;;;;;;5041669;28;1408;-79
2022/11/05 11:19:25;;;;;;;;;;;;;;;;;;5036520;28;816;-79
2022/11/05 11:22:11;;;;;;;;;;;;;;;;;;5035717;28;1080;-79
2022/11/05 11:24:37;;;;;;;;;;;;;;;;;;5055870;28;1387;-78
2022/11/05 11:27:05;;;;;;;;;;;;;;;;;;5047608;28;1906;-79
2022/11/05 11:29:34;;;;;;;;;;;;;;;;;;5037341;28;1001;-79
2022/11/05 11:32:01;;;;;;;;;;;;;;;;;;5035710;28;986;-78
2022/11/05 11:34:29;;;;;;;;;;;;;;;;;;5047881;28;1403;-79
2022/11/05 11:36:56;;;;;;;;;;;;;;;;;;5047394;28;1614;-77
2022/11/05 11:39:23;;;;;;;;;;;;;;;;;;5046478;28;1387;-79
2022/11/05 11:41:49;;;;;;;;;;;;;;;;;;5055713;28;1106;-79
2022/11/05 11:44:16;;;;;;;;;;;;;;;;;;5056856;28;1090;-79
2022/11/05 11:46:42;;;;;;;;;;;;;;;;;;5056928;28;1968;-79
2022/11/05 11:49:09;;;;;;;;;;;;;;;;;;5046380;28;1411;-78
2022/11/05 11:51:39;;;;;;;;;;;;;;;;;;5055558;28;1420;-79
2022/11/05 11:54:06;;;;;;;;;;;;;;;;;;5050620;28;1337;-78
2022/11/05 11:56:42;;;;;;;;;;;;;;;;;;5046639;28;1299;-79
2022/11/05 11:59:13;;;;;;;;;;;;;;;;;;5057445;28;1467;-79
2022/11/05 12:01:54;;;;;;;;;;;;;;;;;;5041843;28;1174;-78
2022/11/05 12:04:29;;;;;;;;;;;;;;;;;;5035183;28;1594;-79
2022/11/05 12:06:59;;;;;;;;;;;;;;;;;;5037496;28;1980;-79
2022/11/05 12:09:27;;;;;;;;;;;;;;;;;;5048127;28;1579;-79
2022/11/05 12:11:55;;;;;;;;;;;;;;;;;;5056530;28;1465;-77
2022/11/05 12:14:23;;;;;;;;;;;;;;;;;;5048677;28;1381;-80
2022/11/05 12:16:53;;;;;;;;;;;;;;;;;;5054175;28;1349;-79
2022/11/05 12:19:22;;;;;;;;;;;;;;;;;;5052928;28;1133;-77
2022/11/05 12:21:50;;;;;;;;;;;;;;;;;;5055038;28;1449;-78
2022/11/05 12:24:41;;;;;;;;;;;;;;;;;;5053563;28;1198;-78
2022/11/05 12:27:10;;;;;;;;;;;;;;;;;;5066990;28;1906;-78
2022/11/05 12:29:41;;;;;;;;;;;;;;;;;;5056048;28;1244;-80
2022/11/05 12:32:13;;;;;;;;;;;;;;;;;;5054288;28;1391;-80
2022/11/05 12:34:42;;;;;;;;;;;;;;;;;;5058241;28;1716;-78
2022/11/05 12:37:12;;;;;;;;;;;;;;;;;;5058440;28;1273;-80
2022/11/05 12:39:50;;;;;;;;;;;;;;;;;;5063445;28;1507;-80
2022/11/05 12:42:20;;;;;;;;;;;;;;;;;;5044835;28;1423;-77
2022/11/05 12:44:51;;;;;;;;;;;;;;;;;;5015139;28;1407;-76
2022/11/05 12:47:22;;;;;;;;;;;;;;;;;;4999896;28;1946;-77
2022/11/05 12:49:53;;;;;;;;;;;;;;;;;;4975566;28;1475;-77
2022/11/05 12:52:26;;;;;;;;;;;;;;;;;;4968978;28;1664;-76
2022/11/05 12:54:58;;;;;;;;;;;;;;;;;;4988722;28;1479;-77
2022/11/05 12:57:24;;;;;;;;;;;;;;;;;;4995182;28;1123;-76
2022/11/05 12:59:52;;;;;;;;;;;;;;;;;;4988694;28;993;-76
2022/11/05 13:02:21;;;;;;;;;;;;;;;;;;4980643;28;1246;-77
2022/11/05 13:04:49;;;;;;;;;;;;;;;;;;4985416;28;1278;-77
2022/11/05 13:07:16;;;;;;;;;;;;;;;;;;4984088;28;2028;-77
2022/11/05 13:09:44;;;;;;;;;;;;;;;;;;4987292;28;1009;-75
2022/11/05 13:12:12;;;;;;;;;;;;;;;;;;4989759;28;1121;-76
2022/11/05 13:14:40;;;;;;;;;;;;;;;;;;4993817;28;1387;-77
2022/11/05 13:17:08;;;;;;;;;;;;;;;;;;4987125;28;1164;-77
2022/11/05 13:19:36;;;;;;;;;;;;;;;;;;4988514;28;1204;-76
2022/11/05 13:22:06;;;;;;;;;;;;;;;;;;4987740;28;1104;-77
2022/11/05 13:24:37;;;;;;;;;;;;;;;;;;4982741;28;1121;-78
2022/11/05 13:27:06;;;;;;;;;;;;;;;;;;4980225;28;1978;-78
2022/11/05 13:29:34;;;;;;;;;;;;;;;;;;4992007;28;1152;-77
2022/11/05 13:32:01;;;;;;;;;;;;;;;;;;4986555;28;1192;-76
2022/11/05 13:34:27;;;;;;;;;;;;;;;;;;4990947;28;1317;-77
2022/11/05 13:39:41;;;;;;;;;;;;;;;;;;5050260;28;1164;-76
2022/11/05 13:42:28;;;;;;;;;;;;;;;;;;5054239;28;1212;-78
2022/11/05 13:45:03;;;;;;;;;;;;;;;;;;5019345;28;1941;-77
2022/11/05 13:47:37;;;;;;;;;;;;;;;;;;5048031;28;1941;-78
2022/11/05 13:50:16;;;;;;;;;;;;;;;;;;5061103;28;1451;-78
2022/11/05 13:52:53;;;;;;;;;;;;;;;;;;5042301;28;1491;-77
2022/11/05 13:55:27;;;;;;;;;;;;;;;;;;5061416;28;1316;-78
2022/11/05 13:58:07;;;;;;;;;;;;;;;;;;5061563;28;1068;-78
2022/11/05 14:00:36;;;;;;;;;;;;;;;;;;5060376;28;1084;-78
2022/11/05 14:03:03;;;;;;;;;;;;;;;;;;5059814;28;906;-78
2022/11/05 14:05:30;;;;;;;;;;;;;;;;;;5059813;28;1405;-78
2022/11/05 14:07:57;;;;;;;;;;;;;;;;;;5040788;28;1903;-78
2022/11/05 14:10:26;;;;;;;;;;;;;;;;;;5059415;28;862;-79
2022/11/05 14:12:52;;;;;;;;;;;;;;;;;;5063510;28;801;-79
2022/11/05 14:15:20;;;;;;;;;;;;;;;;;;5063666;28;1301;-78
2022/11/05 14:17:59;;;;;;;;;;;;;;;;;;5064556;28;943;-79
2022/11/05 14:20:40;;;;;;;;;;;;;;;;;;5065202;28;1087;-79
2022/11/05 14:23:24;;;;;;;;;;;;;;;;;;5061785;28;1116;-79
2022/11/05 14:25:51;;;;;;;;;;;;;;;;;;5064000;28;1294;-78
2022/11/05 14:28:28;;;;;;;;;;;;;;;;;;5064019;28;1891;-77
2022/11/05 14:30:54;;;;;;;;;;;;;;;;;;5065830;28;1111;-79
2022/11/05 14:33:38;;;;;;;;;;;;;;;;;;5062044;28;886;-79
2022/11/05 14:36:28;;;;;;;;;;;;;;;;;;5063487;28;1574;-79
2022/11/05 14:38:55;;;;;;;;;;;;;;;;;;5046492;28;1278;-79
2022/11/05 14:41:21;;;;;;;;;;;;;;;;;;5063451;28;1063;-77
2022/11/05 14:43:49;;;;;;;;;;;;;;;;;;5063035;28;1092;-79
2022/11/05 14:46:15;;;;;;;;;;;;;;;;;;5063312;28;1380;-79
2022/11/05 14:48:42;;;;;;;;;;;;;;;;;;5062681;28;1910;-79
2022/11/05 14:51:30;;;;;;;;;;;;;;;;;;5062902;28;925;-79
2022/11/05 14:54:00;;;;;;;;;;;;;;;;;;5062787;28;1067;-79
2022/11/05 14:56:26;;;;;;;;;;;;;;;;;;5062614;28;1257;-78
2022/11/05 14:58:53;;;;;;;;;;;;;;;;;;5062370;28;1124;-79
2022/11/05 15:01:38;;;;;;;;;;;;;;;;;;5058999;28;1445;-78
2022/11/05 15:04:15;;;;;;;;;;;;;;;;;;5044100;28;1133;-79
2022/11/05 15:06:43;;;;;;;;;;;;;;;;;;5060353;28;1386;-79
2022/11/05 15:09:13;;;;;;;;;;;;;;;;;;5061948;28;1918;-79
2022/11/05 15:11:40;;;;;;;;;;;;;;;;;;5060592;28;989;-79
2022/11/05 15:14:08;;;;;;;;;;;;;;;;;;5055337;28;914;-75
2022/11/05 15:16:36;;;;;;;;;;;;;;;;;;5054319;28;1395;-77
2022/11/05 15:19:02;;;;;;;;;;;;;;;;;;5036795;28;1267;-77
2022/11/05 15:21:29;;;;;;;;;;;;;;;;;;5053158;28;1075;-77
2022/11/05 15:23:56;;;;;;;;;;;;;;;;;;5053563;28;1076;-77
2022/11/05 15:26:23;;;;;;;;;;;;;;;;;;5053589;28;1246;-77
2022/11/05 15:28:50;;;;;;;;;;;;;;;;;;5054014;28;1898;-77
2022/11/05 15:31:20;;;;;;;;;;;;;;;;;;5053092;28;945;-74
2022/11/05 15:33:47;;;;;;;;;;;;;;;;;;5035763;28;1105;-77
2022/11/05 15:36:17;;;;;;;;;;;;;;;;;;5050449;28;1452;-77
2022/11/05 15:38:43;;;;;;;;;;;;;;;;;;5039865;28;2040;-78
2022/11/05 15:41:14;;;;;;;;;;;;;;;;;;5058189;28;1229;-77
2022/11/05 15:43:42;;;;;;;;;;;;;;;;;;5057385;28;1150;-77
2022/11/05 15:46:14;;;;;;;;;;;;;;;;;;5057337;28;1306;-77
2022/11/05 15:48:40;;;;;;;;;;;;;;;;;;5055917;28;1902;-77
2022/11/05 15:51:06;;;;;;;;;;;;;;;;;;5056978;28;815;-77
2022/11/05 15:53:34;;;;;;;;;;;;;;;;;;5054502;28;1197;-78
2022/11/05 15:56:04;;;;;;;;;;;;;;;;;;5056802;28;1274;-78
2022/11/05 15:58:32;;;;;;;;;;;;;;;;;;5056596;28;918;-77
2022/11/05 16:00:58;;;;;;;;;;;;;;;;;;5055770;28;1120;-77
2022/11/05 16:03:25;;;;;;;;;;;;;;;;;;5060917;28;1128;-77
2022/11/05 16:05:52;;;;;;;;;;;;;;;;;;5062000;28;1298;-77
2022/11/05 16:08:19;;;;;;;;;;;;;;;;;;5059461;28;1891;-77
2022/11/05 16:10:46;;;;;;;;;;;;;;;;;;5060377;28;1083;-77
2022/11/05 16:13:22;;;;;;;;;;;;;;;;;;5056904;28;1235;-78
2022/11/05 16:15:54;;;;;;;;;;;;;;;;;;5056991;28;1387;-77
2022/11/05 16:18:21;;;;;;;;;;;;;;;;;;5056769;28;881;-78
2022/11/05 16:20:58;;;;;;;;;;;;;;;;;;5038300;28;1195;-78
2022/11/05 16:23:24;;;;;;;;;;;;;;;;;;5055939;28;865;-77
2022/11/05 16:25:51;;;;;;;;;;;;;;;;;;5056641;28;1246;-77
2022/11/05 16:28:19;;;;;;;;;;;;;;;;;;5109663;22;3620;-75
2022/11/05 16:30:51;;;;;;;;;;;;;;;;;;5107762;28;1146;-76
2022/11/05 16:33:19;;;;;;;;;;;;;;;;;;5112324;28;1168;-75
2022/11/05 16:35:45;;;;;;;;;;;;;;;;;;5113348;28;778;-76
2022/11/05 16:38:12;;;;;;;;;;;;;;;;;;5097049;28;1499;-76
2022/11/05 16:40:38;;;;;;;;;;;;;;;;;;5092978;28;780;-75
2022/11/05 16:43:08;;;;;;;;;;;;;;;;;;5091830;28;1055;-74
2022/11/05 16:45:35;;;;;;;;;;;;;;;;;;5092927;28;1217;-76
2022/11/05 16:48:01;;;;;;;;;;;;;;;;;;5090591;28;1902;-76
2022/11/05 16:50:30;;;;;;;;;;;;;;;;;;5092727;28;917;-75
2022/11/05 16:52:56;;;;;;;;;;;;;;;;;;5091748;28;1051;-76
2022/11/05 16:55:22;;;;;;;;;;;;;;;;;;5093159;28;1060;-75
2022/11/05 16:57:49;;;;;;;;;;;;;;;;;;5092177;28;1367;-75
2022/11/05 17:00:16;;;;;;;;;;;;;;;;;;5092804;28;1083;-76
2022/11/05 17:02:43;;;;;;;;;;;;;;;;;;5091711;28;885;-75
2022/11/05 17:05:15;;;;;;;;;;;;;;;;;;5092825;28;751;-75
2022/11/05 17:07:42;;;;;;;;;;;;;;;;;;5092593;28;1389;-76
2022/11/05 17:10:09;;;;;;;;;;;;;;;;;;5092607;28;1983;-75
2022/11/05 17:12:35;;;;;;;;;;;;;;;;;;5094592;28;1175;-74
2022/11/05 17:15:01;;;;;;;;;;;;;;;;;;5108419;28;1032;-74
2022/11/05 17:17:28;;;;;;;;;;;;;;;;;;5103355;28;1398;-75
2022/11/05 17:19:55;;;;;;;;;;;;;;;;;;5072871;28;1085;-75
2022/11/05 17:22:21;;;;;;;;;;;;;;;;;;5017218;28;849;-76
2022/11/05 17:24:49;;;;;;;;;;;;;;;;;;5023875;28;889;-75
2022/11/05 17:27:16;;;;;;;;;;;;;;;;;;5026566;28;1297;-74
2022/11/05 17:29:42;;;;;;;;;;;;;;;;;;5027168;28;2043;-75
2022/11/05 17:32:09;;;;;;;;;;;;;;;;;;5021847;28;932;-75
2022/11/05 17:34:35;;;;;;;;;;;;;;;;;;5027998;28;849;-75
2022/11/05 17:37:02;;;;;;;;;;;;;;;;;;5023571;28;1348;-75
2022/11/05 17:39:29;;;;;;;;;;;;;;;;;;5018959;28;1276;-76
2022/11/05 17:41:57;;;;;;;;;;;;;;;;;;5021368;28;917;-75
2022/11/05 17:44:23;;;;;;;;;;;;;;;;;;5024475;28;861;-75
2022/11/05 17:46:50;;;;;;;;;;;;;;;;;;5024185;28;1383;-75
2022/11/05 17:49:16;;;;;;;;;;;;;;;;;;5025535;28;2001;-75
2022/11/05 17:51:43;;;;;;;;;;;;;;;;;;5026043;28;1476;-75
2022/11/05 17:54:09;;;;;;;;;;;;;;;;;;5024691;28;865;-74
2022/11/05 17:56:39;;;;;;;;;;;;;;;;;;5027008;28;1315;-75
2022/11/05 17:59:07;;;;;;;;;;;;;;;;;;5016534;28;936;-75